createdAt,value
2022-12-25T00:00:16.766Z,66.39
2022-12-25T00:02:22.814Z,66.98
2022-12-25T00:04:24.982Z,66.18
2022-12-25T00:06:27.631Z,66.27
2022-12-25T00:08:29.986Z,66.52
2022-12-25T00:10:33.435Z,66.56
2022-12-25T00:12:35.980Z,66.52
2022-12-25T00:14:38.184Z,66.36
2022-12-25T00:16:40.220Z,66.72
2022-12-25T00:18:42.359Z,66.75
2022-12-25T00:20:44.377Z,67.54
2022-12-25T00:22:46.494Z,67.02
2022-12-25T00:24:48.894Z,67.09
2022-12-25T00:26:50.760Z,67.02
2022-12-25T00:28:58.616Z,66.92
2022-12-25T00:31:05.086Z,66.88
2022-12-25T00:33:07.683Z,66.78
2022-12-25T00:35:09.685Z,66.71
2022-12-25T00:37:11.683Z,67.25
2022-12-25T00:39:13.534Z,67.12
2022-12-25T00:41:41.338Z,67.24
2022-12-25T00:43:44.180Z,67.27
2022-12-25T00:45:55.483Z,67.20
2022-12-25T00:47:58.016Z,67.67
2022-12-25T00:50:00.129Z,67.40
2022-12-25T00:52:02.126Z,67.70
2022-12-25T00:54:04.098Z,67.92
2022-12-25T00:56:08.040Z,67.51
2022-12-25T00:58:09.990Z,67.85
2022-12-25T01:00:12.376Z,67.98
2022-12-25T01:02:23.717Z,67.83
2022-12-25T01:04:25.701Z,67.77
2022-12-25T01:06:28.526Z,67.62
2022-12-25T01:08:32.456Z,67.57
2022-12-25T01:10:34.595Z,67.37
2022-12-25T01:12:39.742Z,67.62
2022-12-25T01:14:41.739Z,67.30
2022-12-25T01:16:44.172Z,67.24
2022-12-25T01:18:46.814Z,67.30
2022-12-25T01:20:49.218Z,67.65
2022-12-25T01:22:52.903Z,67.66
2022-12-25T01:24:56.064Z,67.67
2022-12-25T01:26:59.271Z,67.49
2022-12-25T01:29:02.756Z,67.67
2022-12-25T01:31:08.684Z,67.28
2022-12-25T01:33:10.701Z,67.27
2022-12-25T01:35:12.681Z,67.62
2022-12-25T01:37:14.656Z,67.58
2022-12-25T01:39:16.851Z,67.17
2022-12-25T01:41:22.025Z,67.19
2022-12-25T01:43:28.340Z,67.12
2022-12-25T01:45:33.058Z,67.81
2022-12-25T01:47:35.201Z,67.62
2022-12-25T01:49:40.418Z,67.74
2022-12-25T01:51:47.373Z,67.73
2022-12-25T01:53:49.703Z,67.64
2022-12-25T01:55:57.435Z,67.71
2022-12-25T01:57:59.777Z,67.41
2022-12-25T02:00:02.925Z,67.72
2022-12-25T02:02:06.707Z,67.20
2022-12-25T02:04:39.058Z,67.26
2022-12-25T02:06:41.936Z,67.17
2022-12-25T02:08:43.899Z,67.33
2022-12-25T02:10:46.081Z,67.29
2022-12-25T02:12:49.147Z,67.25
2022-12-25T02:14:57.135Z,67.50
2022-12-25T02:17:13.578Z,67.49
2022-12-25T02:19:53.120Z,67.17
2022-12-25T02:22:04.707Z,67.16
2022-12-25T02:24:33.855Z,67.02
2022-12-25T02:26:51.769Z,66.92
2022-12-25T02:29:11.677Z,66.86
2022-12-25T02:31:19.045Z,66.80
2022-12-25T02:33:50.706Z,66.64
2022-12-25T02:35:55.967Z,66.59
2022-12-25T02:38:35.920Z,66.44
2022-12-25T02:40:46.431Z,66.74
2022-12-25T02:43:12.903Z,66.27
2022-12-25T02:45:38.848Z,66.40
2022-12-25T02:47:59.757Z,66.79
2022-12-25T02:50:22.088Z,66.26
2022-12-25T02:52:46.647Z,66.52
2022-12-25T02:55:13.160Z,66.31
2022-12-25T02:57:38.729Z,66.25
2022-12-25T03:00:03.425Z,66.04
2022-12-25T03:02:26.114Z,66.31
2022-12-25T03:04:48.914Z,65.89
2022-12-25T03:07:05.213Z,65.76
2022-12-25T03:09:28.318Z,65.73
2022-12-25T03:11:33.319Z,65.84
2022-12-25T03:13:40.278Z,66.02
2022-12-25T03:16:03.728Z,66.13
2022-12-25T03:18:11.859Z,66.10
2022-12-25T03:20:32.397Z,66.04
2022-12-25T03:22:53.184Z,65.83
2022-12-25T03:25:14.056Z,66.15
2022-12-25T03:27:17.122Z,65.75
2022-12-25T03:29:38.538Z,66.13
2022-12-25T03:31:53.522Z,66.01
2022-12-25T03:34:29.350Z,65.89
2022-12-25T03:37:02.318Z,65.57
2022-12-25T03:39:53.803Z,65.30
2022-12-25T03:42:19.328Z,65.44
2022-12-25T03:44:48.820Z,65.89
2022-12-25T03:47:27.335Z,65.53
2022-12-25T03:50:13.946Z,65.58
2022-12-25T03:52:38.408Z,65.34
2022-12-25T03:55:02.446Z,65.39
2022-12-25T03:57:23.203Z,65.41
2022-12-25T03:59:44.213Z,65.61
2022-12-25T04:02:04.951Z,65.55
2022-12-25T04:04:25.584Z,65.56
2022-12-25T04:06:45.954Z,65.71
2022-12-25T04:09:06.510Z,65.59
2022-12-25T04:11:26.978Z,65.90
2022-12-25T04:13:47.585Z,65.92
2022-12-25T04:16:10.737Z,65.42
2022-12-25T04:18:31.589Z,65.24
2022-12-25T04:20:52.203Z,65.07
2022-12-25T04:23:12.684Z,65.06
2022-12-25T04:25:33.396Z,65.21
2022-12-25T04:27:53.948Z,65.11
2022-12-25T04:30:14.619Z,65.02
2022-12-25T04:32:35.253Z,65.01
2022-12-25T04:34:55.948Z,64.82
2022-12-25T04:36:58.052Z,64.63
2022-12-25T04:39:00.354Z,64.87
2022-12-25T04:41:03.117Z,64.58
2022-12-25T04:43:05.290Z,64.59
2022-12-25T04:45:07.920Z,64.53
2022-12-25T04:47:11.693Z,64.39
2022-12-25T04:49:13.770Z,64.64
2022-12-25T04:51:18.777Z,64.19
2022-12-25T04:53:21.577Z,64.33
2022-12-25T04:55:23.654Z,64.33
2022-12-25T04:57:26.407Z,64.04
2022-12-25T04:59:28.238Z,63.93
2022-12-25T05:01:30.781Z,64.15
2022-12-25T05:03:33.466Z,63.81
2022-12-25T05:05:39.887Z,63.71
2022-12-25T05:07:41.904Z,63.85
2022-12-25T05:09:43.824Z,63.64
2022-12-25T05:11:45.785Z,63.87
2022-12-25T05:13:47.865Z,63.79
2022-12-25T05:15:50.236Z,63.61
2022-12-25T05:17:52.276Z,63.64
2022-12-25T05:19:54.321Z,63.82
2022-12-25T05:21:56.413Z,63.95
2022-12-25T05:23:58.293Z,63.46
2022-12-25T05:26:05.835Z,63.76
2022-12-25T05:28:08.113Z,63.92
2022-12-25T05:30:10.729Z,63.83
2022-12-25T05:32:12.851Z,64.19
2022-12-25T05:34:15.106Z,64.13
2022-12-25T05:36:17.856Z,64.37
2022-12-25T05:38:20.162Z,64.20
2022-12-25T05:40:22.154Z,64.63
2022-12-25T05:42:24.339Z,64.46
2022-12-25T05:44:26.311Z,64.49
2022-12-25T05:46:28.280Z,64.71
2022-12-25T05:48:30.546Z,64.89
2022-12-25T05:50:32.648Z,64.95
2022-12-25T05:52:40.655Z,64.64
2022-12-25T05:54:42.754Z,64.73
2022-12-25T05:56:44.777Z,64.69
2022-12-25T05:58:46.872Z,64.70
2022-12-25T06:00:48.739Z,64.85
2022-12-25T06:02:50.838Z,65.20
2022-12-25T06:04:52.917Z,65.58
2022-12-25T06:06:55.074Z,65.45
2022-12-25T06:08:56.969Z,65.16
2022-12-25T06:10:58.978Z,65.18
2022-12-25T06:13:01.172Z,65.41
2022-12-25T06:15:04.124Z,65.70
2022-12-25T06:17:06.150Z,65.34
2022-12-25T06:19:08.587Z,65.20
2022-12-25T06:21:13.205Z,65.93
2022-12-25T06:23:15.378Z,65.64
2022-12-25T06:25:17.520Z,65.75
2022-12-25T06:27:19.773Z,65.75
2022-12-25T06:29:21.863Z,65.94
2022-12-25T06:31:24.875Z,65.76
2022-12-25T06:33:27.134Z,65.41
2022-12-25T06:35:29.242Z,65.92
2022-12-25T06:37:31.720Z,65.82
2022-12-25T06:39:33.837Z,65.76
2022-12-25T06:41:36.083Z,65.43
2022-12-25T06:43:39.230Z,65.48
2022-12-25T06:45:41.464Z,65.16
2022-12-25T06:47:44.651Z,65.26
2022-12-25T06:49:46.660Z,64.79
2022-12-25T06:51:48.652Z,65.01
2022-12-25T06:53:52.391Z,65.07
2022-12-25T06:55:54.530Z,64.49
2022-12-25T06:57:57.588Z,64.78
2022-12-25T06:59:59.643Z,64.44
2022-12-25T07:02:03.100Z,64.48
2022-12-25T07:04:07.885Z,64.41
2022-12-25T07:06:10.138Z,64.49
2022-12-25T07:08:12.025Z,64.50
2022-12-25T07:10:17.090Z,64.25
2022-12-25T07:12:21.955Z,64.47
2022-12-25T07:14:24.716Z,64.77
2022-12-25T07:16:26.911Z,64.70
2022-12-25T07:18:30.446Z,65.38
2022-12-25T07:20:32.454Z,64.99
2022-12-25T07:22:34.397Z,65.20
2022-12-25T07:24:36.443Z,65.56
2022-12-25T07:26:40.912Z,65.18
2022-12-25T07:28:43.489Z,64.72
2022-12-25T07:30:45.539Z,64.84
2022-12-25T07:32:50.249Z,65.02
2022-12-25T07:34:52.518Z,65.24
2022-12-25T07:36:55.230Z,65.32
2022-12-25T07:38:57.555Z,65.15
2022-12-25T07:40:59.922Z,64.85
2022-12-25T07:43:01.951Z,64.81
2022-12-25T07:45:05.232Z,65.02
2022-12-25T07:47:07.382Z,65.28
2022-12-25T07:49:09.837Z,65.79
2022-12-25T07:51:13.523Z,65.79
2022-12-25T07:53:16.867Z,65.71
2022-12-25T07:55:18.790Z,65.84
2022-12-25T07:57:21.223Z,66.15
2022-12-25T07:59:23.270Z,66.13
2022-12-25T08:01:27.154Z,66.14
2022-12-25T08:04:21.109Z,66.82
2022-12-25T08:06:27.006Z,66.46
2022-12-25T08:08:29.380Z,66.80
2022-12-25T08:10:31.819Z,66.80
2022-12-25T08:12:33.790Z,67.12
2022-12-25T08:14:35.951Z,66.37
2022-12-25T08:16:41.728Z,66.70
2022-12-25T08:18:44.661Z,66.74
2022-12-25T08:20:46.654Z,66.94
2022-12-25T08:22:48.821Z,66.83
2022-12-25T08:24:51.135Z,67.15
2022-12-25T08:26:53.415Z,66.71
2022-12-25T08:28:55.700Z,66.18
2022-12-25T08:30:57.821Z,66.62
2022-12-25T08:33:00.261Z,66.08
2022-12-25T08:35:02.305Z,66.16
2022-12-25T08:37:04.405Z,66.05
2022-12-25T08:39:09.236Z,65.47
2022-12-25T08:41:12.577Z,65.42
2022-12-25T08:43:14.777Z,65.71
2022-12-25T08:45:17.491Z,65.70
2022-12-25T08:47:19.575Z,65.76
2022-12-25T08:49:21.895Z,65.60
2022-12-25T08:51:25.407Z,65.50
2022-12-25T08:53:27.680Z,65.37
2022-12-25T08:55:30.265Z,65.72
2022-12-25T08:57:32.568Z,65.44
2022-12-25T08:59:34.562Z,65.13
2022-12-25T09:01:36.754Z,65.19
2022-12-25T09:03:39.842Z,65.21
2022-12-25T09:05:42.199Z,65.14
2022-12-25T09:07:44.681Z,65.00
2022-12-25T09:09:46.957Z,65.16
2022-12-25T09:11:52.657Z,65.15
2022-12-25T09:13:54.782Z,65.27
2022-12-25T09:15:56.901Z,65.22
2022-12-25T09:17:59.165Z,65.24
2022-12-25T09:20:01.500Z,64.90
2022-12-25T09:22:03.707Z,65.07
2022-12-25T09:24:06.025Z,65.11
2022-12-25T09:26:11.436Z,64.63
2022-12-25T09:28:13.479Z,64.96
2022-12-25T09:30:15.592Z,64.69
2022-12-25T09:32:17.783Z,64.99
2022-12-25T09:34:19.878Z,64.82
2022-12-25T09:36:23.766Z,64.72
2022-12-25T09:38:26.927Z,64.47
2022-12-25T09:40:31.440Z,64.61
2022-12-25T09:42:34.809Z,64.61
2022-12-25T09:44:52.116Z,64.13
2022-12-25T09:47:06.100Z,64.38
2022-12-25T09:49:20.499Z,64.36
2022-12-25T09:51:24.993Z,64.36
2022-12-25T09:53:32.822Z,63.75
2022-12-25T09:55:41.043Z,64.18
2022-12-25T09:57:45.449Z,64.84
2022-12-25T09:59:49.303Z,64.68
2022-12-25T10:02:31.354Z,64.59
2022-12-25T10:04:57.504Z,64.41
2022-12-25T10:07:17.733Z,63.71
2022-12-25T10:09:26.367Z,64.34
2022-12-25T10:11:57.515Z,64.65
2022-12-25T10:14:21.006Z,63.70
2022-12-25T10:16:42.062Z,63.67
2022-12-25T10:19:05.013Z,64.16
2022-12-25T10:21:13.446Z,63.96
2022-12-25T10:23:39.405Z,64.32
2022-12-25T10:25:43.094Z,64.50
2022-12-25T10:27:48.835Z,64.51
2022-12-25T10:29:56.551Z,64.41
2022-12-25T10:31:59.213Z,64.16
2022-12-25T10:34:01.399Z,64.80
2022-12-25T10:40:12.759Z,64.67
2022-12-25T10:42:33.302Z,64.85
2022-12-25T10:44:35.449Z,64.51
2022-12-25T10:46:38.171Z,64.73
2022-12-25T10:48:51.759Z,64.83
2022-12-25T10:50:53.970Z,64.13
2022-12-25T10:53:04.716Z,63.41
2022-12-25T10:55:24.947Z,63.19
2022-12-25T10:57:30.426Z,63.15
2022-12-25T10:59:47.062Z,62.72
2022-12-25T11:01:54.877Z,62.84
2022-12-25T11:03:57.440Z,63.13
2022-12-25T11:06:00.011Z,62.60
2022-12-25T11:08:03.358Z,61.46
2022-12-25T11:10:22.605Z,61.53
2022-12-25T11:12:46.861Z,61.02
2022-12-25T11:15:07.098Z,61.40
2022-12-25T11:17:10.438Z,62.05
2022-12-25T11:19:38.635Z,61.67
2022-12-25T11:21:52.355Z,61.68
2022-12-25T11:24:03.632Z,61.71
2022-12-25T11:26:08.519Z,61.83
2022-12-25T11:28:13.578Z,62.04
2022-12-25T11:30:16.209Z,61.69
2022-12-25T11:32:21.264Z,61.27
2022-12-25T11:34:41.577Z,61.40
2022-12-25T11:36:52.749Z,61.15
2022-12-25T11:38:55.370Z,61.10
2022-12-25T11:41:01.496Z,61.18
2022-12-25T11:43:11.818Z,60.90
2022-12-25T11:45:16.514Z,61.31
2022-12-25T11:47:51.510Z,60.95
2022-12-25T11:50:01.851Z,61.54
2022-12-25T11:52:06.784Z,61.52
2022-12-25T11:54:18.116Z,60.82
2022-12-25T11:56:29.415Z,61.15
2022-12-25T11:58:52.846Z,60.39
2022-12-25T12:00:58.585Z,60.91
2022-12-25T12:03:04.285Z,60.96
2022-12-25T12:05:16.645Z,60.96
2022-12-25T12:07:30.768Z,60.61
2022-12-25T12:09:38.512Z,60.42
2022-12-25T12:11:52.442Z,60.41
2022-12-25T12:14:30.787Z,60.44
2022-12-25T12:16:36.905Z,60.55
2022-12-25T12:18:38.938Z,60.35
2022-12-25T12:20:41.159Z,60.46
2022-12-25T12:22:50.348Z,60.28
2022-12-25T12:25:06.463Z,60.39
2022-12-25T12:27:11.162Z,60.39
2022-12-25T12:29:46.170Z,60.55
2022-12-25T12:31:51.280Z,60.38
2022-12-25T12:33:58.867Z,60.65
2022-12-25T12:36:03.481Z,60.73
2022-12-25T12:38:11.978Z,60.40
2022-12-25T12:40:27.892Z,60.44
2022-12-25T12:42:39.083Z,60.45
2022-12-25T12:44:41.860Z,60.62
2022-12-25T12:46:53.772Z,60.24
2022-12-25T12:49:26.031Z,60.10
2022-12-25T12:51:33.802Z,60.71
2022-12-25T12:53:38.516Z,60.51
2022-12-25T12:55:40.950Z,60.89
2022-12-25T12:57:43.362Z,60.64
2022-12-25T12:59:47.062Z,60.30
2022-12-25T13:01:57.662Z,60.44
2022-12-25T13:04:30.108Z,60.78
2022-12-25T13:06:55.204Z,60.60
2022-12-25T13:09:31.814Z,60.56
2022-12-25T13:11:42.084Z,60.50
2022-12-25T13:13:45.840Z,60.35
2022-12-25T13:15:50.795Z,60.25
2022-12-25T13:17:54.694Z,60.44
2022-12-25T13:19:59.795Z,60.06
2022-12-25T13:22:05.072Z,60.11
2022-12-25T13:24:20.216Z,59.99
2022-12-25T13:26:22.257Z,60.28
2022-12-25T13:28:28.811Z,59.96
2022-12-25T13:30:30.842Z,60.29
2022-12-25T13:32:37.933Z,60.06
2022-12-25T13:34:42.397Z,60.01
2022-12-25T13:36:44.619Z,60.44
2022-12-25T13:38:49.300Z,60.50
2022-12-25T13:41:12.579Z,60.60
2022-12-25T13:43:14.831Z,60.66
2022-12-25T13:45:26.005Z,60.56
2022-12-25T13:47:30.717Z,60.55
2022-12-25T13:49:36.680Z,60.45
2022-12-25T13:51:38.676Z,60.58
2022-12-25T13:53:40.691Z,60.57
2022-12-25T13:55:48.157Z,60.64
2022-12-25T13:57:59.306Z,60.54
2022-12-25T14:00:02.625Z,60.80
2022-12-25T14:02:19.192Z,60.70
2022-12-25T14:04:26.453Z,60.90
2022-12-25T14:06:30.915Z,61.03
2022-12-25T14:08:35.560Z,61.11
2022-12-25T14:10:39.514Z,61.14
2022-12-25T14:12:41.918Z,61.37
2022-12-25T14:14:55.710Z,61.12
2022-12-25T14:16:59.752Z,61.17
2022-12-25T14:19:03.021Z,61.31
2022-12-25T14:21:10.588Z,61.42
2022-12-25T14:23:16.357Z,61.76
2022-12-25T14:25:18.863Z,61.30
2022-12-25T14:27:24.388Z,61.62
2022-12-25T14:29:30.661Z,61.52
2022-12-25T14:31:34.151Z,61.68
2022-12-25T14:33:39.432Z,61.77
2022-12-25T14:35:42.274Z,61.54
2022-12-25T14:37:44.854Z,61.62
2022-12-25T14:39:56.071Z,61.94
2022-12-25T14:41:58.687Z,62.18
2022-12-25T14:44:03.771Z,61.96
2022-12-25T14:46:09.203Z,62.14
2022-12-25T14:48:24.716Z,62.42
2022-12-25T14:50:41.779Z,62.28
2022-12-25T14:52:45.827Z,62.24
2022-12-25T14:55:15.011Z,62.44
2022-12-25T14:57:26.738Z,62.48
2022-12-25T14:59:29.286Z,62.49
2022-12-25T15:01:34.376Z,62.43
2022-12-25T15:03:37.528Z,62.35
2022-12-25T15:05:40.405Z,62.63
2022-12-25T15:07:42.560Z,62.83
2022-12-25T15:09:44.741Z,62.76
2022-12-25T15:11:56.028Z,62.77
2022-12-25T15:13:58.893Z,62.39
2022-12-25T15:16:14.188Z,62.58
2022-12-25T15:18:17.720Z,62.83
2022-12-25T15:20:21.559Z,62.72
2022-12-25T15:22:23.658Z,62.53
2022-12-25T15:24:25.657Z,62.29
2022-12-25T15:26:29.781Z,62.62
2022-12-25T15:28:31.668Z,62.32
2022-12-25T15:30:35.660Z,62.54
2022-12-25T15:32:38.003Z,62.46
2022-12-25T15:34:39.873Z,62.65
2022-12-25T15:36:42.004Z,62.75
2022-12-25T15:38:44.563Z,62.78
2022-12-25T15:40:47.189Z,62.68
2022-12-25T15:42:50.116Z,62.69
2022-12-25T15:44:52.309Z,62.49
2022-12-25T15:46:54.764Z,62.63
2022-12-25T15:48:56.982Z,62.44
2022-12-25T15:50:59.238Z,62.21
2022-12-25T15:53:01.333Z,62.33
2022-12-25T15:55:03.964Z,62.20
2022-12-25T15:57:14.487Z,62.49
2022-12-25T15:59:18.242Z,62.33
2022-12-25T16:01:21.323Z,62.06
2022-12-25T16:03:23.692Z,62.00
2022-12-25T16:05:26.965Z,62.24
2022-12-25T16:07:29.515Z,62.15
2022-12-25T16:09:31.539Z,62.15
2022-12-25T16:11:33.499Z,62.09
2022-12-25T16:13:35.669Z,62.04
2022-12-25T16:15:37.681Z,62.18
2022-12-25T16:17:40.506Z,62.15
2022-12-25T16:19:45.011Z,62.07
2022-12-25T16:21:47.549Z,62.05
2022-12-25T16:23:49.646Z,62.08
2022-12-25T16:25:51.847Z,61.86
2022-12-25T16:27:53.855Z,61.65
2022-12-25T16:29:55.821Z,61.73
2022-12-25T16:31:57.771Z,61.74
2022-12-25T16:34:00.221Z,61.71
2022-12-25T16:36:02.367Z,61.70
2022-12-25T16:38:04.659Z,61.37
2022-12-25T16:40:09.695Z,61.49
2022-12-25T16:42:11.857Z,61.30
2022-12-25T16:44:14.961Z,61.38
2022-12-25T16:46:21.604Z,61.43
2022-12-25T16:48:23.575Z,61.29
2022-12-25T16:50:25.833Z,61.62
2022-12-25T16:52:27.857Z,61.35
2022-12-25T16:54:30.144Z,61.20
2022-12-25T16:56:32.678Z,61.38
2022-12-25T16:58:35.465Z,61.28
2022-12-25T17:00:37.306Z,61.47
2022-12-25T17:02:42.784Z,61.01
2022-12-25T17:04:45.779Z,61.48
2022-12-25T17:06:52.374Z,61.20
2022-12-25T17:08:58.479Z,61.12
2022-12-25T17:11:05.192Z,61.22
2022-12-25T17:13:07.287Z,61.29
2022-12-25T17:15:09.775Z,61.20
2022-12-25T17:17:14.807Z,61.36
2022-12-25T17:19:19.965Z,61.11
2022-12-25T17:29:53.381Z,63.00
2022-12-25T17:31:55.908Z,62.51
2022-12-25T17:33:59.902Z,62.54
2022-12-25T17:36:07.451Z,62.81
2022-12-25T17:38:09.358Z,62.91
2022-12-25T17:40:11.937Z,63.03
2022-12-25T17:42:15.903Z,63.02
2022-12-25T17:44:21.537Z,63.50
2022-12-25T17:46:29.018Z,63.27
2022-12-25T17:48:31.142Z,63.38
2022-12-25T17:50:39.187Z,62.88
2022-12-25T17:52:43.223Z,62.83
2022-12-25T17:54:45.502Z,62.80
2022-12-25T17:56:48.240Z,62.66
2022-12-25T17:58:55.847Z,62.61
2022-12-25T18:00:59.067Z,62.47
2022-12-25T18:03:05.776Z,62.48
2022-12-25T18:05:13.023Z,62.32
2022-12-25T18:07:15.276Z,62.74
2022-12-25T18:09:17.552Z,62.49
2022-12-25T18:11:25.796Z,62.30
2022-12-25T18:13:27.954Z,62.25
2022-12-25T18:15:30.051Z,62.39
2022-12-25T18:17:32.565Z,62.00
2022-12-25T18:19:34.758Z,62.20
2022-12-25T18:21:37.197Z,62.30
2022-12-25T18:23:39.809Z,61.88
2022-12-25T18:25:43.137Z,61.88
2022-12-25T18:27:45.386Z,61.70
2022-12-25T18:29:48.180Z,62.17
2022-12-25T18:31:50.445Z,61.88
2022-12-25T18:33:54.065Z,61.91
2022-12-25T18:36:00.837Z,61.73
2022-12-25T18:38:02.982Z,61.84
2022-12-25T18:40:06.131Z,61.71
2022-12-25T18:42:28.134Z,61.74
2022-12-25T18:44:30.521Z,61.69
2022-12-25T18:46:32.875Z,62.21
2022-12-25T18:48:35.786Z,62.11
2022-12-25T18:50:40.716Z,61.98
2022-12-25T18:52:50.079Z,62.45
2022-12-25T18:54:53.653Z,62.19
2022-12-25T18:56:56.106Z,61.75
2022-12-25T18:59:00.872Z,61.98
2022-12-25T19:01:13.943Z,61.75
2022-12-25T19:03:16.395Z,61.91
2022-12-25T19:05:18.664Z,62.48
2022-12-25T19:07:22.866Z,62.58
2022-12-25T19:09:24.933Z,63.35
2022-12-25T19:11:27.166Z,63.29
2022-12-25T19:13:29.219Z,63.79
2022-12-25T19:15:31.292Z,64.12
2022-12-25T19:17:34.400Z,63.93
2022-12-25T19:19:41.503Z,64.23
2022-12-25T19:21:43.773Z,64.45
2022-12-25T19:23:46.198Z,64.02
2022-12-25T19:25:49.543Z,64.09
2022-12-25T19:27:51.447Z,64.61
2022-12-25T19:29:53.492Z,64.29
2022-12-25T19:31:56.377Z,64.00
2022-12-25T19:33:59.717Z,64.07
2022-12-25T19:36:06.703Z,64.23
2022-12-25T19:38:08.648Z,64.03
2022-12-25T19:40:11.385Z,63.83
2022-12-25T19:42:14.939Z,64.12
2022-12-25T19:44:17.175Z,64.38
2022-12-25T19:46:26.057Z,64.16
2022-12-25T19:48:28.497Z,63.88
2022-12-25T19:50:32.817Z,64.46
2022-12-25T19:52:35.485Z,64.14
2022-12-25T19:54:37.460Z,63.95
2022-12-25T19:56:39.678Z,63.70
2022-12-25T19:58:41.757Z,64.18
2022-12-25T20:00:43.888Z,64.14
2022-12-25T20:02:46.466Z,64.26
2022-12-25T20:04:48.515Z,63.80
2022-12-25T20:06:50.547Z,64.26
2022-12-25T20:08:55.372Z,63.76
2022-12-25T20:10:57.459Z,63.75
2022-12-25T20:12:59.465Z,63.30
2022-12-25T20:15:01.486Z,63.32
2022-12-25T20:17:03.636Z,63.18
2022-12-25T20:19:06.857Z,63.07
2022-12-25T20:21:14.301Z,63.01
2022-12-25T20:23:16.737Z,63.00
2022-12-25T20:25:18.798Z,62.64
2022-12-25T20:27:20.767Z,62.91
2022-12-25T20:29:22.819Z,62.78
2022-12-25T20:31:28.098Z,62.52
2022-12-25T20:33:30.307Z,62.50
2022-12-25T20:35:32.362Z,62.98
2022-12-25T20:37:34.491Z,63.14
2022-12-25T20:39:36.879Z,63.28
2022-12-25T20:41:39.867Z,63.23
2022-12-25T20:43:45.446Z,62.90
2022-12-25T20:45:51.568Z,63.03
2022-12-25T20:47:53.820Z,63.30
2022-12-25T20:49:56.220Z,63.05
2022-12-25T20:52:04.852Z,62.99
2022-12-25T20:54:09.783Z,63.23
2022-12-25T20:56:17.556Z,63.02
2022-12-25T20:58:20.242Z,63.48
2022-12-25T21:00:22.445Z,63.12
2022-12-25T21:02:34.856Z,63.49
2022-12-25T21:04:38.843Z,63.36
2022-12-25T21:06:40.958Z,63.61
2022-12-25T21:08:43.037Z,63.91
2022-12-25T21:10:50.418Z,63.95
2022-12-25T21:12:52.669Z,64.00
2022-12-25T21:14:54.788Z,64.69
2022-12-25T21:16:57.324Z,64.38
2022-12-25T21:19:02.443Z,64.26
2022-12-25T21:21:07.724Z,64.20
2022-12-25T21:23:10.189Z,64.00
2022-12-25T21:25:12.444Z,64.42
2022-12-25T21:27:14.596Z,64.73
2022-12-25T21:29:18.099Z,64.89
2022-12-25T21:31:21.483Z,64.87
2022-12-25T21:33:43.471Z,64.37
2022-12-25T21:35:45.567Z,65.05
2022-12-25T21:37:48.026Z,65.02
2022-12-25T21:39:50.778Z,65.00
2022-12-25T21:41:52.961Z,65.13
2022-12-25T21:43:56.463Z,64.86
2022-12-25T21:46:03.109Z,64.89
2022-12-25T21:48:05.364Z,64.93
2022-12-25T21:50:26.537Z,65.21
2022-12-25T21:52:28.740Z,64.74
2022-12-25T21:54:30.786Z,65.46
2022-12-25T21:56:41.342Z,65.18
2022-12-25T21:58:45.404Z,65.60
2022-12-25T22:00:47.744Z,65.26
2022-12-25T22:02:50.457Z,65.69
2022-12-25T22:04:52.578Z,65.53
2022-12-25T22:07:13.017Z,65.83
2022-12-25T22:09:15.552Z,65.96
2022-12-25T22:11:36.295Z,65.19
2022-12-25T22:13:56.995Z,65.59
2022-12-25T22:16:24.300Z,66.75
2022-12-25T22:18:45.288Z,66.42
2022-12-25T22:20:47.543Z,66.42
2022-12-25T22:22:50.475Z,66.13
2022-12-25T22:24:55.599Z,66.49
2022-12-25T22:26:58.177Z,66.60
2022-12-25T22:29:00.735Z,65.89
2022-12-25T22:31:07.560Z,66.40
2022-12-25T22:33:10.180Z,66.12
2022-12-25T22:35:13.501Z,66.34
2022-12-25T22:37:17.714Z,66.30
2022-12-25T22:39:19.986Z,65.88
2022-12-25T22:41:22.084Z,66.39
2022-12-25T22:43:43.360Z,66.18
2022-12-25T22:45:46.155Z,66.29
2022-12-25T22:47:48.593Z,66.45
2022-12-25T22:49:50.635Z,66.40
2022-12-25T22:51:53.373Z,66.76
2022-12-25T22:53:58.790Z,67.39
2022-12-25T22:56:09.520Z,66.53
2022-12-25T22:58:11.514Z,66.30
2022-12-25T23:00:14.019Z,66.17
2022-12-25T23:02:16.110Z,66.57
2022-12-25T23:04:18.613Z,66.77
2022-12-25T23:06:21.315Z,66.47
2022-12-25T23:08:24.877Z,66.72
2022-12-25T23:10:27.269Z,66.64
2022-12-25T23:12:47.920Z,67.09
2022-12-25T23:14:49.937Z,66.72
2022-12-25T23:16:52.088Z,66.75
2022-12-25T23:19:13.044Z,66.60
2022-12-25T23:21:37.197Z,66.44
2022-12-25T23:23:57.757Z,66.49
2022-12-25T23:26:08.934Z,65.96
2022-12-25T23:28:11.042Z,65.85
2022-12-25T23:30:16.416Z,65.88
2022-12-25T23:32:27.411Z,65.47
2022-12-25T23:34:29.628Z,65.44
2022-12-25T23:36:32.627Z,65.53
2022-12-25T23:38:37.118Z,65.60
2022-12-25T23:40:39.288Z,65.39
2022-12-25T23:42:41.379Z,65.04
2022-12-25T23:44:44.167Z,65.37
2022-12-25T23:46:52.616Z,64.99
2022-12-25T23:48:57.560Z,64.72
2022-12-25T23:51:06.901Z,64.79
2022-12-25T23:53:11.688Z,64.83
2022-12-25T23:55:14.010Z,64.80
2022-12-25T23:57:15.958Z,64.86
2022-12-25T23:59:18.518Z,64.61
